Time;durP1;ratioP1;P1;durP2;ratioP2;P2;SDS_P1;SDS_P2;PMS_P1;PMS_P2;Temp;Humidity;BMP_temperature;BMP_pressure;BME280_temperature;BME280_humidity;BME280_pressure;Samples;Min_cycle;Max_cycle;Signal;HPM_P1;HPM_P2
2022/11/04 00:01:45;;;;;;;3.85;2.63;;;;;;;20.23;59.58;95814.88;10583141;28;20059;-55
2022/11/04 00:08:22;;;;;;;3.45;2.30;;;;;;;20.23;59.61;95812.16;10572445;28;20047;-54
2022/11/04 00:12:44;;;;;;;3.22;2.70;;;;;;;20.22;59.69;95807.88;10585543;28;20047;-55
2022/11/04 00:18:04;;;;;;;3.08;2.55;;;;;;;20.23;59.88;95812.16;10585518;28;20047;-55
2022/11/04 00:29:01;;;;;;;3.25;2.53;;;;;;;20.20;59.81;95796.63;10569991;28;20055;-54
2022/11/04 00:34:20;;;;;;;3.15;2.55;;;;;;;20.19;59.72;95796.97;10577166;28;20048;-54
2022/11/04 00:39:40;;;;;;;2.60;2.30;;;;;;;20.19;59.82;95789.66;10576743;28;20051;-55
2022/11/04 00:44:59;;;;;;;3.90;2.60;;;;;;;20.17;59.71;95777.63;10576601;28;20056;-55
2022/11/04 00:50:19;;;;;;;3.00;2.33;;;;;;;20.15;59.73;95775.28;10549356;28;20055;-54
2022/11/04 00:55:38;;;;;;;3.33;2.30;;;;;;;20.15;59.78;95764.47;10597955;28;20105;-54
2022/11/04 01:00:57;;;;;;;3.10;2.33;;;;;;;20.14;59.82;95760.97;10584190;28;20052;-55
2022/11/04 01:06:17;;;;;;;3.05;2.20;;;;;;;20.14;59.55;95757.47;10564043;28;20063;-56
2022/11/04 01:11:37;;;;;;;2.80;2.22;;;;;;;20.11;59.77;95753.56;10580762;28;20047;-54
2022/11/04 01:16:56;;;;;;;3.10;2.30;;;;;;;20.11;59.80;95758.97;10583282;28;20058;-55
2022/11/04 01:22:16;;;;;;;2.80;2.38;;;;;;;20.11;59.84;95763.59;10593271;28;20509;-56
2022/11/04 01:27:35;;;;;;;2.95;2.40;;;;;;;20.08;59.78;95753.47;10596795;28;20085;-55
2022/11/04 01:32:54;;;;;;;3.15;2.38;;;;;;;20.08;59.70;95761.59;10582190;28;20056;-55
2022/11/04 01:38:14;;;;;;;3.38;2.45;;;;;;;20.07;59.75;95757.31;10554949;28;20044;-54
2022/11/04 01:43:54;;;;;;;3.17;2.38;;;;;;;20.06;59.66;95755.75;10564991;28;20063;-55
2022/11/04 01:49:30;;;;;;;2.63;2.30;;;;;;;20.06;59.66;95758.47;10559408;28;20047;-55
2022/11/04 01:54:51;;;;;;;2.88;2.40;;;;;;;20.04;59.70;95753.41;10584133;28;20093;-55
2022/11/04 02:00:11;;;;;;;2.47;2.00;;;;;;;20.03;59.76;95754.56;10579602;28;20063;-55
2022/11/04 02:05:33;;;;;;;2.45;2.20;;;;;;;20.02;59.77;95739.44;10573068;28;20552;-54
2022/11/04 02:10:58;;;;;;;2.65;2.20;;;;;;;20.01;59.92;95729.75;10567076;28;20062;-55
2022/11/04 02:16:40;;;;;;;2.75;2.00;;;;;;;20.01;59.88;95715.47;10572462;28;20105;-55
2022/11/04 02:22:32;;;;;;;3.92;2.25;;;;;;;20.00;59.85;95709.28;10566282;28;20039;-54
2022/11/04 02:28:22;;;;;;;2.47;2.13;;;;;;;19.99;59.85;95686.09;10560120;28;20043;-54
2022/11/04 02:34:36;;;;;;;2.30;2.10;;;;;;;19.98;59.84;95679.13;10556060;28;20120;-55
2022/11/04 02:40:17;;;;;;;2.72;2.00;;;;;;;19.98;59.80;95675.66;10472405;28;20064;-54
2022/11/04 02:45:40;;;;;;;2.65;2.08;;;;;;;19.95;59.74;95677.91;10564311;28;20060;-55
2022/11/04 02:51:27;;;;;;;3.20;2.38;;;;;;;19.94;59.69;95684.44;10550865;28;20407;-54
2022/11/04 02:56:49;;;;;;;2.55;2.17;;;;;;;19.94;59.75;95708.78;10564612;28;20101;-55
2022/11/04 03:02:15;;;;;;;2.30;2.10;;;;;;;19.93;59.59;95723.44;10571599;28;20149;-54
2022/11/04 03:07:37;;;;;;;2.60;2.15;;;;;;;19.92;59.63;95740.00;10581750;28;20483;-54
2022/11/04 03:13:15;;;;;;;2.72;2.00;;;;;;;19.90;59.68;95729.53;10592804;28;20377;-54
2022/11/04 03:18:53;;;;;;;2.10;1.90;;;;;;;19.90;59.68;95709.84;10571360;28;20059;-56
2022/11/04 03:24:12;;;;;;;2.10;1.90;;;;;;;19.89;59.78;95717.16;10586655;28;20059;-55
2022/11/04 03:29:40;;;;;;;2.80;1.98;;;;;;;19.89;59.63;95730.66;10569978;28;20052;-55
2022/11/04 03:35:00;;;;;;;2.07;1.80;;;;;;;19.88;59.67;95766.94;10546909;28;20060;-54
2022/11/04 03:40:20;;;;;;;2.33;1.80;;;;;;;19.87;59.66;95786.22;10571799;28;20052;-55
2022/11/04 03:45:40;;;;;;;2.00;1.80;;;;;;;19.86;59.77;95807.06;10569346;28;20108;-55
2022/11/04 03:51:00;;;;;;;2.30;2.10;;;;;;;19.85;59.55;95796.59;10581814;28;20124;-55
2022/11/04 03:56:52;;;;;;;2.05;1.85;;;;;;;19.84;59.68;95795.81;10586276;28;20048;-55
2022/11/04 04:02:19;;;;;;;2.60;2.05;;;;;;;19.83;59.65;95796.94;10582385;28;20403;-55
2022/11/04 04:07:43;;;;;;;2.25;1.80;;;;;;;19.83;59.71;95796.94;10567522;28;20499;-54
2022/11/04 04:13:33;;;;;;;2.13;1.92;;;;;;;19.81;59.40;95799.19;10556420;28;20065;-54
2022/11/04 04:19:19;;;;;;;2.13;1.90;;;;;;;19.81;59.50;95803.84;10576200;28;20051;-54
2022/11/04 04:30:19;;;;;;;2.20;1.85;;;;;;;19.78;59.67;95797.22;10559454;28;20055;-54
2022/11/04 04:35:43;;;;;;;2.03;1.83;;;;;;;19.77;59.59;95795.63;10583135;28;20047;-54
2022/11/04 04:46:48;;;;;;;3.35;1.90;;;;;;;19.77;59.61;95797.56;10592949;28;20051;-56
2022/11/04 04:52:08;;;;;;;2.38;1.85;;;;;;;19.75;59.64;95787.09;10573061;28;20136;-55
2022/11/04 04:57:27;;;;;;;1.73;1.63;;;;;;;19.76;59.64;95794.09;10556775;28;20048;-54
2022/11/04 05:02:47;;;;;;;2.17;1.70;;;;;;;19.75;59.62;95798.69;10575702;28;20044;-55
2022/11/04 05:08:07;;;;;;;2.08;1.60;;;;;;;19.73;59.67;95783.97;10574693;28;20097;-55
2022/11/04 05:13:28;;;;;;;2.33;2.00;;;;;;;19.72;59.84;95793.22;10565369;28;20141;-54
2022/11/04 05:18:50;;;;;;;3.08;2.17;;;;;;;19.73;59.94;95792.84;10571988;28;20055;-56
2022/11/04 05:24:10;;;;;;;2.38;2.03;;;;;;;19.73;60.04;95786.66;10575214;28;20074;-55
2022/11/04 05:29:29;;;;;;;4.15;2.30;;;;;;;19.73;60.09;95779.34;10565215;28;20551;-55
2022/11/04 05:34:48;;;;;;;3.08;2.10;;;;;;;19.73;60.07;95789.38;10584388;28;20055;-54
2022/11/04 05:40:08;;;;;;;2.38;2.17;;;;;;;19.72;60.09;95787.81;10579590;28;20090;-55
2022/11/04 05:45:28;;;;;;;2.25;2.05;;;;;;;19.72;60.08;95787.81;10556143;28;20052;-54
2022/11/04 05:50:47;;;;;;;2.33;2.03;;;;;;;19.72;60.00;95785.09;10554047;28;20048;-54
2022/11/04 05:56:07;;;;;;;2.33;2.03;;;;;;;19.72;60.20;95787.81;10574448;28;20066;-54
2022/11/04 06:01:38;;;;;;;4.50;2.10;;;;;;;19.73;60.34;95794.78;10553637;28;20048;-54
2022/11/04 06:06:57;;;;;;;7.38;3.47;;;;;;;19.74;60.22;95785.53;10563697;28;20041;-54
2022/11/04 06:12:17;;;;;;;10.38;4.00;;;;;;;19.73;60.19;95787.44;10576023;28;20098;-54
2022/11/04 06:17:37;;;;;;;11.77;4.10;;;;;;;19.73;60.09;95787.44;10564971;28;20054;-54
2022/11/04 06:22:56;;;;;;;12.18;4.28;;;;;;;19.74;60.03;95796.34;10568433;28;20058;-55
2022/11/04 06:28:16;;;;;;;9.95;4.25;;;;;;;19.76;59.91;95794.09;10574653;28;20051;-55
2022/11/04 06:33:35;;;;;;;10.70;4.45;;;;;;;19.75;59.97;95787.09;10543422;28;20062;-55
2022/11/04 06:38:55;;;;;;;8.77;4.40;;;;;;;19.77;59.95;95779.41;10555774;28;20060;-54
2022/11/04 06:44:14;;;;;;;10.13;4.35;;;;;;;19.77;59.94;95784.06;10565357;28;20059;-54
2022/11/04 06:49:34;;;;;;;9.85;4.47;;;;;;;19.79;59.97;95782.56;10579142;28;20175;-54
2022/11/04 06:54:53;;;;;;;8.77;4.10;;;;;;;19.81;60.00;95783.00;10577118;28;20440;-54
2022/11/04 07:00:13;;;;;;;10.73;4.57;;;;;;;19.82;59.97;95792.69;10578561;28;20043;-54
2022/11/04 07:05:33;;;;;;;10.35;4.80;;;;;;;19.82;59.89;95795.38;10592855;28;20552;-54
2022/11/04 07:10:54;;;;;;;8.93;4.15;;;;;;;19.83;59.95;95815.84;10560878;28;20036;-54
2022/11/04 07:16:14;;;;;;;10.95;4.70;;;;;;;19.84;59.89;95798.53;10561799;28;20043;-54
2022/11/04 07:21:33;;;;;;;8.23;4.53;;;;;;;19.85;59.96;95810.88;10589402;28;20051;-54
2022/11/04 07:26:54;;;;;;;6.72;3.70;;;;;;;19.87;59.89;95802.44;10564761;28;20604;-55
2022/11/04 07:32:14;;;;;;;7.38;3.90;;;;;;;19.88;59.91;95793.97;10569133;28;20051;-55
2022/11/04 07:37:33;;;;;;;7.55;3.83;;;;;;;19.89;59.92;95800.16;10565412;28;20048;-54
2022/11/04 07:42:55;;;;;;;7.03;3.85;;;;;;;19.90;59.84;95802.53;10568269;28;20052;-54
2022/11/04 07:48:27;;;;;;;7.78;4.00;;;;;;;19.90;59.89;95797.13;10567026;28;20487;-54
2022/11/04 07:53:46;;;;;;;5.80;3.42;;;;;;;19.92;59.79;95799.47;10558372;28;20048;-54
2022/11/04 07:59:06;;;;;;;6.53;3.55;;;;;;;19.93;59.75;95803.72;10565045;28;20421;-54
2022/11/04 08:04:26;;;;;;;9.02;4.13;;;;;;;19.94;59.80;95806.09;10584061;28;20093;-54
2022/11/04 08:09:45;;;;;;;7.35;6.13;;;;;;;19.82;55.06;95806.19;10580025;28;20056;-54
2022/11/04 08:15:06;;;;;;;9.02;5.88;;;;;;;19.81;55.00;95806.53;10570513;28;20491;-54
2022/11/04 08:20:25;;;;;;;6.22;4.05;;;;;;;19.86;56.97;95806.28;10583516;28;20394;-54
2022/11/04 08:25:45;;;;;;;6.85;4.50;;;;;;;19.90;58.00;95802.53;10565296;28;20491;-54
2022/11/04 08:31:15;;;;;;;6.18;4.40;;;;;;;19.94;57.53;95800.69;10586477;28;20046;-55
2022/11/04 08:36:37;;;;;;;6.28;4.43;;;;;;;19.97;57.56;95806.53;10556515;28;20048;-54
2022/11/04 08:41:57;;;;;;;8.30;4.47;;;;;;;19.98;57.54;95805.41;10575599;28;20048;-54
2022/11/04 08:47:17;;;;;;;4.97;4.00;;;;;;;19.98;57.63;95811.59;10594838;28;20039;-57
2022/11/04 08:52:36;;;;;;;4.97;4.10;;;;;;;20.00;57.60;95805.84;10583683;28;20052;-54
2022/11/04 08:57:56;;;;;;;5.47;4.22;;;;;;;20.01;57.78;95808.16;10553691;28;20098;-54
2022/11/04 09:03:16;;;;;;;4.43;3.92;;;;;;;20.02;57.61;95790.81;10586015;28;20036;-54
2022/11/04 09:08:38;;;;;;;5.32;3.97;;;;;;;20.03;57.54;95788.91;10579233;28;20040;-55
2022/11/04 09:13:59;;;;;;;5.88;4.03;;;;;;;20.04;57.67;95791.25;10578637;28;20043;-54
2022/11/04 09:19:19;;;;;;;4.85;3.88;;;;;;;20.06;57.65;95788.97;10576804;28;20055;-55
2022/11/04 09:24:38;;;;;;;5.82;3.85;;;;;;;20.06;57.75;95788.97;10556832;28;20175;-54
2022/11/04 09:29:58;;;;;;;5.38;3.80;;;;;;;20.07;57.65;95792.47;10554523;28;20066;-54
2022/11/04 09:35:17;;;;;;;4.82;3.70;;;;;;;20.08;57.74;95789.41;10584950;28;20043;-54
2022/11/04 09:40:37;;;;;;;4.90;3.90;;;;;;;20.09;57.80;95788.28;10580673;28;20105;-54
2022/11/04 09:45:57;;;;;;;5.25;3.85;;;;;;;20.11;57.77;95787.91;10566222;28;20036;-54
2022/11/04 09:51:19;;;;;;;5.65;3.47;;;;;;;20.14;57.84;95789.94;10576173;28;20043;-54
2022/11/04 09:56:42;;;;;;;4.65;3.63;;;;;;;20.13;57.90;95791.03;10590660;28;20445;-54
2022/11/04 10:02:18;;;;;;;4.78;3.60;;;;;;;20.14;57.89;95795.34;10581727;28;20051;-54
2022/11/04 10:07:40;;;;;;;4.03;3.22;;;;;;;20.16;57.94;95787.66;10539599;28;20040;-54
2022/11/04 10:13:05;;;;;;;4.53;3.40;;;;;;;20.16;57.88;95779.53;10562239;28;20055;-54
2022/11/04 10:18:58;;;;;;;3.22;2.92;;;;;;;20.18;57.94;95785.38;10566189;28;20052;-54
2022/11/04 10:24:19;;;;;;;4.30;3.45;;;;;;;20.19;57.94;95765.34;10578163;28;20048;-54
2022/11/04 10:29:42;;;;;;;4.15;2.97;;;;;;;20.20;57.93;95763.41;10558577;28;20044;-54
2022/11/04 10:35:08;;;;;;;4.28;3.33;;;;;;;20.21;58.08;95776.56;10574103;28;20048;-55
2022/11/04 10:40:35;;;;;;;4.20;3.40;;;;;;;20.24;57.93;95769.66;10590481;28;20406;-54
2022/11/04 10:45:57;;;;;;;4.20;3.42;;;;;;;20.23;58.06;95747.25;10573015;28;20429;-54
2022/11/04 10:51:20;;;;;;;6.03;3.20;;;;;;;20.24;58.01;95740.69;10579723;28;20051;-54
2022/11/04 10:56:42;;;;;;;4.35;3.30;;;;;;;20.25;58.10;95742.28;10569806;28;20491;-54
2022/11/04 11:02:02;;;;;;;5.55;3.33;;;;;;;20.26;58.10;95743.81;10557180;28;20047;-54
2022/11/04 11:07:35;;;;;;;4.43;3.63;;;;;;;20.17;54.54;95737.06;10578830;28;20073;-54
2022/11/04 11:13:03;;;;;;;3.17;2.72;;;;;;;20.20;56.48;95720.91;10570366;28;20441;-54
2022/11/04 11:18:27;;;;;;;3.80;3.00;;;;;;;20.25;56.89;95715.22;10585905;28;20552;-55
2022/11/04 11:23:48;;;;;;;3.50;2.80;;;;;;;20.27;56.63;95714.88;10570724;28;20491;-54
2022/11/04 11:29:10;;;;;;;3.45;2.80;;;;;;;20.29;56.61;95715.31;10575792;28;20054;-54
2022/11/04 11:34:36;;;;;;;3.20;2.90;;;;;;;20.29;56.73;95720.72;10582070;28;20051;-54
2022/11/04 11:39:56;;;;;;;3.03;2.42;;;;;;;20.30;56.79;95725.75;10554571;28;20579;-55
2022/11/04 11:45:22;;;;;;;3.40;2.80;;;;;;;20.30;56.58;95711.44;10583174;28;20044;-55
2022/11/04 11:50:57;;;;;;;3.50;3.17;;;;;;;20.30;56.75;95709.53;10575142;28;20048;-54
2022/11/04 11:56:23;;;;;;;3.22;2.70;;;;;;;20.31;56.77;95713.81;10568711;28;20510;-54
2022/11/04 12:01:50;;;;;;;3.47;2.60;;;;;;;20.33;56.83;95714.25;10584336;28;20047;-54
2022/11/04 12:07:42;;;;;;;3.63;2.83;;;;;;;20.33;56.91;95689.91;10586532;28;20048;-54
2022/11/04 12:13:25;;;;;;;3.25;2.40;;;;;;;20.35;56.86;95657.88;10594182;28;20043;-54
2022/11/04 12:19:40;;;;;;;3.08;2.58;;;;;;;20.37;56.70;95646.69;10573263;28;20044;-54
2022/11/04 12:25:17;;;;;;;3.15;2.40;;;;;;;20.37;56.70;95644.00;10492981;28;20044;-54
2022/11/04 12:31:08;;;;;;;2.90;2.17;;;;;;;20.37;56.82;95649.41;10595186;28;20040;-54
2022/11/04 12:36:57;;;;;;;3.08;2.40;;;;;;;20.38;56.90;95661.00;10559624;27;20051;-54
2022/11/04 12:42:26;;;;;;;2.90;2.33;;;;;;;20.39;56.94;95659.88;10528869;28;20066;-54
2022/11/04 12:47:46;;;;;;;2.92;2.50;;;;;;;20.40;57.11;95661.41;10568281;28;20047;-54
2022/11/04 12:53:31;;;;;;;2.75;2.50;;;;;;;20.41;56.98;95661.06;10591952;28;20437;-55
2022/11/04 12:59:12;;;;;;;2.80;2.50;;;;;;;20.41;56.95;95654.88;10547229;28;20044;-55
2022/11/04 13:04:37;;;;;;;2.53;2.33;;;;;;;20.42;57.28;95659.91;10568932;28;20047;-54
2022/11/04 13:09:59;;;;;;;2.83;2.40;;;;;;;20.44;57.06;95683.91;10578909;28;20055;-54
2022/11/04 13:15:22;;;;;;;2.50;2.30;;;;;;;20.44;57.11;95675.78;10564568;28;20052;-54
2022/11/04 13:20:49;;;;;;;2.92;2.50;;;;;;;20.43;57.03;95677.72;10575327;28;20061;-55
2022/11/04 13:26:12;;;;;;;3.22;2.15;;;;;;;20.44;57.00;95678.50;10566880;28;20047;-54
2022/11/04 13:32:04;;;;;;;2.30;2.10;;;;;;;20.45;56.81;95674.66;10582666;28;20052;-55
2022/11/04 13:37:38;;;;;;;2.72;2.30;;;;;;;20.46;56.99;95665.41;10571083;28;20063;-54
2022/11/04 13:43:56;;;;;;;2.50;2.30;;;;;;;20.48;57.18;95663.13;10572558;28;20055;-54
2022/11/04 13:48:59;;;;;;;2.33;2.13;;;;;;;20.49;57.16;95668.19;10549716;28;20101;-55
2022/11/04 13:54:32;;;;;;;4.03;2.30;;;;;;;20.49;56.99;95675.50;10564454;28;20063;-54
2022/11/04 14:00:06;;;;;;;3.45;2.17;;;;;;;20.50;57.00;95679.78;10580971;28;20052;-54
2022/11/04 14:05:30;;;;;;;2.58;2.00;;;;;;;20.50;57.12;95682.47;10562157;28;20051;-54
2022/11/04 14:10:49;;;;;;;2.25;2.05;;;;;;;20.50;57.14;95687.88;10588576;28;20054;-54
2022/11/04 14:16:24;;;;;;;2.30;2.10;;;;;;;20.52;56.97;95704.53;10577807;28;20051;-55
2022/11/04 14:22:04;;;;;;;2.05;1.90;;;;;;;20.52;56.88;95709.94;10573168;28;20490;-54
2022/11/04 14:27:27;;;;;;;2.60;1.90;;;;;;;20.52;56.97;95709.94;10568337;28;20410;-55
2022/11/04 14:32:46;;;;;;;2.65;2.15;;;;;;;20.53;56.99;95708.84;10569045;28;20052;-54
2022/11/04 14:38:25;;;;;;;1.92;1.83;;;;;;;20.53;57.01;95720.44;10557253;28;20044;-55
2022/11/04 14:43:45;;;;;;;2.33;2.13;;;;;;;20.53;55.48;95736.66;10578411;28;20051;-55
2022/11/04 14:49:05;;;;;;;2.60;2.03;;;;;;;20.55;56.19;95750.63;10568205;28;20052;-54
2022/11/04 14:54:29;;;;;;;2.45;2.25;;;;;;;20.57;56.25;95757.59;10553919;28;20051;-53
2022/11/04 14:59:51;;;;;;;3.40;1.77;;;;;;;20.58;56.62;95761.88;10573987;28;20056;-55
2022/11/04 15:05:23;;;;;;;2.55;1.70;;;;;;;20.59;56.94;95768.84;10558546;28;20047;-53
2022/11/04 15:10:48;;;;;;;3.22;1.90;;;;;;;20.59;57.23;95769.66;10569944;28;20056;-54
2022/11/04 15:16:28;;;;;;;3.83;2.10;;;;;;;20.60;57.27;95771.25;10579668;28;20080;-54
2022/11/04 15:21:48;;;;;;;2.47;1.90;;;;;;;20.59;55.77;95777.78;10558363;28;20032;-53
2022/11/04 15:27:13;;;;;;;1.95;1.73;;;;;;;20.60;56.82;95773.94;10575957;28;20056;-55
2022/11/04 15:32:33;;;;;;;5.47;2.10;;;;;;;20.61;56.92;95761.97;10560433;28;20047;-54
2022/11/04 15:37:54;;;;;;;6.85;1.98;;;;;;;20.62;56.98;95768.16;10534936;28;20059;-55
2022/11/04 15:43:14;;;;;;;7.32;2.10;;;;;;;20.63;57.30;95767.03;10576374;28;20059;-54
2022/11/04 15:48:36;;;;;;;4.22;2.30;;;;;;;20.64;57.18;95777.50;10565515;28;20047;-54
2022/11/04 15:54:17;;;;;;;3.97;2.17;;;;;;;20.66;57.28;95771.72;10572879;28;20048;-53
2022/11/04 15:59:37;;;;;;;5.53;1.83;;;;;;;20.66;57.31;95788.75;10585538;28;20491;-54
2022/11/04 16:05:06;;;;;;;3.95;2.00;;;;;;;20.66;57.37;95788.75;10574923;28;20101;-55
2022/11/04 16:10:30;;;;;;;3.78;2.10;;;;;;;20.67;57.56;95801.13;10571025;28;20047;-54
2022/11/04 16:15:55;;;;;;;4.28;1.65;;;;;;;20.66;57.29;95791.47;10577240;28;20521;-54
2022/11/04 16:21:26;;;;;;;3.40;2.00;;;;;;;20.66;57.38;95804.19;10533062;28;20056;-54
2022/11/04 16:26:46;;;;;;;2.70;1.80;;;;;;;20.68;57.40;95808.13;10579902;28;20380;-54
2022/11/04 16:32:17;;;;;;;3.47;1.90;;;;;;;20.68;57.28;95801.91;10597145;28;20404;-57
2022/11/04 16:37:36;;;;;;;9.50;3.60;;;;;;;20.67;57.49;95809.25;10580327;28;20052;-53
2022/11/04 16:42:56;;;;;;;3.88;2.28;;;;;;;20.67;57.61;95825.50;10584513;28;20071;-53
2022/11/04 16:48:18;;;;;;;165.10;100.40;;;;;;;20.68;57.73;95820.84;10580953;28;20491;-54
2022/11/04 16:53:37;;;;;;;39.28;25.23;;;;;;;20.41;50.43;95830.72;10575880;28;20407;-55
2022/11/04 16:58:57;;;;;;;39.63;22.20;;;;;;;20.18;51.94;95834.06;10580484;28;20411;-54
2022/11/04 17:04:16;;;;;;;42.97;23.08;;;;;;;20.30;53.40;95830.47;10563619;28;20048;-54
2022/11/04 17:09:35;;;;;;;38.00;21.77;;;;;;;20.40;54.16;95834.53;10570272;28;20047;-54
2022/11/04 17:14:55;;;;;;;38.55;19.50;;;;;;;20.45;54.66;95832.34;10583233;28;20048;-55
2022/11/04 17:20:16;;;;;;;29.13;16.40;;;;;;;20.50;55.25;95837.50;10562895;28;20105;-53
2022/11/04 17:25:36;;;;;;;29.65;17.00;;;;;;;20.53;55.74;95860.34;10558771;28;20047;-54
2022/11/04 17:30:56;;;;;;;28.85;15.82;;;;;;;20.53;56.03;95853.00;10592730;28;20505;-54
2022/11/04 17:36:17;;;;;;;24.95;12.93;;;;;;;20.55;56.34;95847.25;10572390;28;20044;-53
2022/11/04 17:47:15;;;;;;;21.70;11.30;;;;;;;20.55;56.85;95869.66;10581593;28;20052;-53
2022/11/04 17:52:35;;;;;;;19.67;10.43;;;;;;;20.55;57.01;95874.31;10575578;28;20059;-54
2022/11/04 17:57:55;;;;;;;16.13;9.52;;;;;;;20.55;57.08;95872.38;10581710;28;20051;-53
2022/11/04 18:03:15;;;;;;;19.65;9.98;;;;;;;20.55;57.12;95880.50;10569245;28;20052;-52
2022/11/04 18:08:34;;;;;;;18.83;9.30;;;;;;;20.55;56.94;95896.72;10568907;28;20127;-52
2022/11/04 18:13:54;;;;;;;15.45;9.65;;;;;;;20.54;57.06;95895.16;10550853;28;20055;-52
2022/11/04 18:19:14;;;;;;;17.63;8.98;;;;;;;20.54;57.12;95907.91;10562234;28;20088;-53
2022/11/04 18:24:34;;;;;;;17.20;8.75;;;;;;;20.53;57.02;95912.53;10577131;28;20097;-54
2022/11/04 18:29:53;;;;;;;16.08;8.88;;;;;;;20.52;57.03;95913.69;10571572;28;20032;-52
2022/11/04 18:35:13;;;;;;;16.83;8.60;;;;;;;20.53;57.02;95925.28;10552646;28;20458;-54
2022/11/04 18:40:32;;;;;;;13.85;8.35;;;;;;;20.50;57.03;95915.94;10578815;28;20052;-52
2022/11/04 18:45:53;;;;;;;12.05;7.88;;;;;;;20.51;57.00;95930.25;10568705;28;20052;-53
2022/11/04 18:51:12;;;;;;;12.88;7.63;;;;;;;20.50;57.02;95931.38;10572205;28;20056;-53
2022/11/04 18:56:32;;;;;;;12.65;7.32;;;;;;;20.50;57.10;95939.50;10579817;28;20481;-52
2022/11/04 19:01:52;;;;;;;11.32;7.05;;;;;;;20.50;57.26;95953.03;10573247;28;20495;-53
2022/11/04 19:07:12;;;;;;;12.82;6.65;;;;;;;20.48;57.27;95963.41;10568509;28;20096;-53
2022/11/04 19:18:10;;;;;;;10.55;6.45;;;;;;;20.46;57.48;95988.09;10570296;28;20056;-52
2022/11/04 19:23:30;;;;;;;12.45;6.65;;;;;;;20.45;57.37;96008.19;10570849;28;20446;-53
2022/11/04 19:28:50;;;;;;;12.27;6.82;;;;;;;20.45;57.78;96002.78;10544382;28;20052;-52
2022/11/04 19:34:11;;;;;;;11.85;6.43;;;;;;;20.44;57.76;96014.72;10570427;28;20384;-53
2022/11/04 19:39:31;;;;;;;10.60;6.63;;;;;;;20.44;57.92;96019.34;10560816;28;20048;-52
2022/11/04 19:44:52;;;;;;;12.40;6.53;;;;;;;20.43;57.90;96023.22;10574995;28;20055;-54
2022/11/04 19:50:12;;;;;;;11.15;6.22;;;;;;;20.42;57.93;96022.41;10587813;28;20055;-54
2022/11/04 19:55:31;;;;;;;11.10;6.40;;;;;;;20.41;58.01;96028.19;10582907;28;20048;-54
2022/11/04 20:00:51;;;;;;;9.45;6.22;;;;;;;20.41;57.85;96047.13;10575681;28;20060;-54
2022/11/04 20:06:14;;;;;;;10.77;5.82;;;;;;;20.42;57.90;96059.50;10580629;28;20364;-54
2022/11/04 20:13:42;;;;;;;11.50;6.43;;;;;;;20.40;58.02;96080.72;10582412;28;20059;-54
2022/11/04 20:17:15;;;;;;;9.93;5.53;;;;;;;20.38;57.91;96081.03;10585591;28;20048;-53
2022/11/04 20:22:35;;;;;;;11.70;6.25;;;;;;;20.40;57.96;96099.66;10571759;28;20427;-54
2022/11/04 20:27:55;;;;;;;11.95;5.97;;;;;;;20.39;58.14;96111.63;10546346;28;20491;-54
2022/11/04 20:33:15;;;;;;;11.63;5.45;;;;;;;20.38;58.11;96118.16;10580077;28;20044;-54
2022/11/04 20:38:34;;;;;;;8.63;5.43;;;;;;;20.37;58.00;96122.00;10581012;28;20040;-53
2022/11/04 20:43:54;;;;;;;3.50;2.40;;;;;;;19.74;50.14;96134.16;10587346;28;21150;-54
2022/11/04 20:49:16;;;;;;;6.25;3.33;;;;;;;19.84;53.23;96133.66;10592467;28;20535;-54
2022/11/04 20:54:35;;;;;;;4.65;2.75;;;;;;;19.99;54.25;96153.78;10561532;28;20052;-54
2022/11/04 20:59:54;;;;;;;5.10;2.80;;;;;;;20.06;54.19;96156.69;10570180;28;20047;-54
2022/11/04 21:05:14;;;;;;;6.32;3.13;;;;;;;20.10;54.00;96154.09;10578121;28;20047;-54
2022/11/04 21:10:36;;;;;;;4.85;2.78;;;;;;;20.13;54.12;96175.03;10596912;28;20402;-55
2022/11/04 21:15:57;;;;;;;3.67;2.72;;;;;;;20.13;54.18;96175.03;10594194;28;20051;-54
2022/11/04 21:21:18;;;;;;;4.57;2.80;;;;;;;20.14;54.26;96174.69;10571382;28;20083;-54
2022/11/04 21:26:37;;;;;;;3.83;2.80;;;;;;;20.15;54.29;96186.31;10556040;28;20052;-54
2022/11/04 21:31:57;;;;;;;4.18;2.55;;;;;;;20.14;54.34;96187.44;10572037;28;20067;-55
2022/11/04 21:37:16;;;;;;;3.85;2.50;;;;;;;20.14;54.44;96190.13;10548454;28;20446;-55
2022/11/04 21:42:35;;;;;;;3.75;2.70;;;;;;;20.13;54.57;96202.06;10574078;28;20063;-54
2022/11/04 21:47:55;;;;;;;2.95;2.45;;;;;;;20.12;54.67;96208.63;10543084;28;20047;-54
2022/11/04 21:53:14;;;;;;;4.13;2.50;;;;;;;20.10;54.73;96195.44;10546988;28;20061;-54
2022/11/04 21:58:35;;;;;;;3.83;2.78;;;;;;;20.10;54.84;96187.31;10595621;28;20040;-54
2022/11/04 22:03:58;;;;;;;4.03;2.50;;;;;;;20.10;54.97;96194.66;10582210;28;20043;-54
2022/11/04 22:09:17;;;;;;;2.95;2.20;;;;;;;20.09;55.02;96201.19;10563017;28;20044;-54
2022/11/04 22:14:37;;;;;;;2.80;2.35;;;;;;;20.07;55.09;96190.72;10570927;28;20032;-54
2022/11/04 22:19:57;;;;;;;4.20;2.63;;;;;;;20.07;55.15;96192.63;10576561;28;20052;-54
2022/11/04 22:25:16;;;;;;;4.22;2.22;;;;;;;20.06;55.24;96196.47;10553261;28;20051;-54
2022/11/04 22:30:36;;;;;;;3.25;2.47;;;;;;;20.05;55.27;96192.19;10552800;28;20052;-55
2022/11/04 22:35:55;;;;;;;4.00;2.20;;;;;;;20.03;55.27;96194.44;10580130;28;20052;-53
2022/11/04 22:41:18;;;;;;;3.75;2.28;;;;;;;20.03;55.41;96191.72;10576843;28;20044;-54
2022/11/04 22:46:38;;;;;;;3.50;2.30;;;;;;;20.02;55.38;96201.00;10541594;28;20055;-54
2022/11/04 22:51:58;;;;;;;3.72;2.38;;;;;;;20.02;55.45;96201.00;10593351;28;20044;-55
2022/11/04 22:57:18;;;;;;;3.80;2.30;;;;;;;20.00;55.50;96212.13;10578951;28;20047;-54
2022/11/04 23:02:38;;;;;;;2.75;2.25;;;;;;;20.00;55.49;96211.34;10554876;28;20051;-55
2022/11/04 23:07:59;;;;;;;2.83;2.10;;;;;;;19.99;55.54;96220.59;10573217;28;20067;-54
2022/11/04 23:18:56;;;;;;;4.28;2.08;;;;;;;19.96;55.62;96219.34;10556402;28;20051;-54
